Caransebes, Romania
Current Conditions -  °F | °C
As of 11:00 AM on Monday 24 Nov 2014 (Local Time) from LYVR Reporting Station
Broken Clouds Broken Clouds  
Wind Chill: 43°   Ceiling: 4000
Heat Index: 43°   Visibility: 5mi
Dew Point: 37°   Wind: 1mph
Humidity: 81%   Direction: NA
Pressure: 30.36"   Gusts: NA
Location:  45.41°N, 22.22°E
Report Text: LYVR 240800Z VRB01KT 8000 BKN040 06/03 Q1028 NOSIG
Loading
Personal Weather Stations






























Interactive Weather Map New forecast layout! Learn more

10-Day Weather Forecast

Advertisements
Track Severe Weather on mobile